createdAt,value
2017-05-12T00:00:19.064Z,5.22
2017-05-12T00:02:48.330Z,4.46
2017-05-12T00:05:17.507Z,5.60
2017-05-12T00:07:46.707Z,5.02
2017-05-12T00:10:15.922Z,5.18
2017-05-12T00:12:45.160Z,4.30
2017-05-12T00:15:14.372Z,4.08
2017-05-12T00:17:44.315Z,4.48
2017-05-12T00:20:13.507Z,4.52
2017-05-12T00:22:42.723Z,4.16
2017-05-12T00:25:11.916Z,3.32
2017-05-12T00:27:41.107Z,4.00
2017-05-12T00:30:10.379Z,4.12
2017-05-12T00:32:40.323Z,3.50
2017-05-12T00:35:09.624Z,3.92
2017-05-12T00:37:38.816Z,4.02
2017-05-12T00:40:08.711Z,4.12
2017-05-12T00:42:38.723Z,3.20
2017-05-12T00:45:08.080Z,3.76
2017-05-12T00:47:37.282Z,3.40
2017-05-12T00:50:06.499Z,3.18
2017-05-12T00:52:35.697Z,4.02
2017-05-12T00:55:04.898Z,3.20
2017-05-12T00:57:34.119Z,3.80
2017-05-12T01:00:03.512Z,3.84
2017-05-12T01:02:32.733Z,3.54
2017-05-12T01:05:02.720Z,3.88
2017-05-12T01:07:32.030Z,3.02
2017-05-12T01:10:01.232Z,3.36
2017-05-12T01:12:31.212Z,3.00
2017-05-12T01:15:00.433Z,3.30
2017-05-12T01:17:30.312Z,3.60
2017-05-12T01:19:59.523Z,3.50
2017-05-12T01:22:28.712Z,4.00
2017-05-12T01:24:57.922Z,3.58
2017-05-12T01:27:27.135Z,4.12
2017-05-12T01:29:56.319Z,3.60
2017-05-12T01:32:25.527Z,4.28
2017-05-12T01:34:54.719Z,4.26
2017-05-12T01:37:24.046Z,4.00
2017-05-12T01:39:53.249Z,4.00
2017-05-12T01:42:22.442Z,3.66
2017-05-12T01:44:51.655Z,4.26
2017-05-12T01:47:20.874Z,4.06
2017-05-12T01:49:50.065Z,4.48
2017-05-12T01:52:19.579Z,4.28
2017-05-12T01:54:48.794Z,4.02
2017-05-12T01:57:18.725Z,4.02
2017-05-12T01:59:48.683Z,4.10
2017-05-12T02:02:17.987Z,3.90
2017-05-12T02:04:46.995Z,4.46
2017-05-12T02:07:16.976Z,4.58
2017-05-12T02:09:46.180Z,3.68
2017-05-12T02:12:16.068Z,5.20
2017-05-12T02:14:45.295Z,3.90
2017-05-12T02:17:14.502Z,4.48
2017-05-12T02:19:43.705Z,4.08
2017-05-12T02:22:12.892Z,4.10
2017-05-12T02:24:43.017Z,3.98
2017-05-12T02:27:12.204Z,3.88
2017-05-12T02:29:41.515Z,4.22
2017-05-12T02:32:10.715Z,3.58
2017-05-12T02:34:39.913Z,3.98
2017-05-12T02:37:09.115Z,3.30
2017-05-12T02:39:38.308Z,3.76
2017-05-12T02:42:07.526Z,3.76
2017-05-12T02:44:36.787Z,3.72
2017-05-12T02:47:05.984Z,4.04
2017-05-12T02:49:35.191Z,3.92
2017-05-12T02:52:04.383Z,3.50
2017-05-12T02:54:33.599Z,3.72
2017-05-12T02:57:02.887Z,3.30
2017-05-12T02:59:32.089Z,4.12
2017-05-12T03:02:01.296Z,3.46
2017-05-12T03:04:30.484Z,3.78
2017-05-12T03:06:59.695Z,4.00
2017-05-12T03:09:28.983Z,4.06
2017-05-12T03:11:58.199Z,4.50
2017-05-12T03:14:27.405Z,4.10
2017-05-12T03:16:56.604Z,4.10
2017-05-12T03:19:25.796Z,4.14
2017-05-12T03:21:55.020Z,4.00
2017-05-12T03:24:24.304Z,3.48
2017-05-12T03:26:53.623Z,3.78
2017-05-12T03:29:22.852Z,3.88
2017-05-12T03:31:52.715Z,3.92
2017-05-12T03:34:21.915Z,3.60
2017-05-12T03:36:51.102Z,4.00
2017-05-12T03:39:20.423Z,4.72
2017-05-12T03:41:49.620Z,4.66
2017-05-12T03:44:18.807Z,4.20
2017-05-12T03:46:48.019Z,4.68
2017-05-12T03:49:17.217Z,4.62
2017-05-12T03:51:47.847Z,4.56
2017-05-12T03:54:17.035Z,3.92
2017-05-12T03:56:46.268Z,4.34
2017-05-12T03:59:15.472Z,3.96
2017-05-12T04:01:44.670Z,3.88
2017-05-12T04:04:13.882Z,3.80
2017-05-12T04:06:43.064Z,3.48
2017-05-12T04:09:12.258Z,3.38
2017-05-12T04:11:41.460Z,3.42
2017-05-12T04:14:10.664Z,3.70
2017-05-12T04:16:39.871Z,3.90
2017-05-12T04:19:09.224Z,3.26
2017-05-12T04:21:38.428Z,3.90
2017-05-12T04:24:07.640Z,4.12
2017-05-12T04:26:36.826Z,2.90
2017-05-12T04:29:06.025Z,3.08
2017-05-12T04:31:35.363Z,3.32
2017-05-12T04:34:04.563Z,3.34
2017-05-12T04:36:33.765Z,3.62
2017-05-12T04:39:02.959Z,4.06
2017-05-12T04:41:32.143Z,3.30
2017-05-12T04:44:01.448Z,3.72
2017-05-12T04:46:30.635Z,3.10
2017-05-12T04:48:59.834Z,3.12
2017-05-12T04:51:29.027Z,3.68
2017-05-12T04:53:58.256Z,3.28
2017-05-12T04:56:27.439Z,3.18
2017-05-12T04:58:56.623Z,3.46
2017-05-12T05:01:25.847Z,3.10
2017-05-12T05:03:55.027Z,3.36
2017-05-12T05:06:24.240Z,3.30
2017-05-12T05:08:53.488Z,3.04
2017-05-12T05:11:22.667Z,4.14
2017-05-12T05:13:51.708Z,3.64
2017-05-12T05:16:21.727Z,3.58
2017-05-12T05:18:50.946Z,3.08
2017-05-12T05:21:20.145Z,3.30
2017-05-12T05:23:49.378Z,2.74
2017-05-12T05:26:18.592Z,2.98
2017-05-12T05:28:47.794Z,2.48
2017-05-12T05:31:17.703Z,2.68
2017-05-12T05:33:46.891Z,2.98
2017-05-12T05:36:16.098Z,2.48
2017-05-12T05:38:45.289Z,2.42
2017-05-12T05:41:14.483Z,2.18
2017-05-12T05:43:43.695Z,2.20
2017-05-12T05:46:12.893Z,2.88
2017-05-12T05:48:42.796Z,2.34
2017-05-12T05:51:11.993Z,1.72
2017-05-12T05:53:41.203Z,1.90
2017-05-12T05:56:10.495Z,2.10
2017-05-12T05:58:39.670Z,1.70
2017-05-12T06:01:08.905Z,1.72
2017-05-12T06:03:38.096Z,1.82
2017-05-12T06:06:06.955Z,1.48
2017-05-12T06:08:36.139Z,2.00
2017-05-12T06:11:05.346Z,1.46
2017-05-12T06:13:34.539Z,1.62
2017-05-12T06:16:03.719Z,1.42
2017-05-12T06:18:33.667Z,1.74
2017-05-12T06:21:02.907Z,2.26
2017-05-12T06:23:32.110Z,1.86
2017-05-12T06:26:01.308Z,1.82
2017-05-12T06:28:30.495Z,1.60
2017-05-12T06:30:59.015Z,1.70
2017-05-12T06:33:28.959Z,1.56
2017-05-12T06:35:58.218Z,1.80
2017-05-12T06:38:27.491Z,1.32
2017-05-12T06:40:56.688Z,1.40
2017-05-12T06:43:25.906Z,1.46
2017-05-12T06:45:55.103Z,1.00
2017-05-12T06:48:24.292Z,1.00
2017-05-12T06:50:53.503Z,1.30
2017-05-12T06:53:22.803Z,1.02
2017-05-12T06:55:52.896Z,1.34
2017-05-12T06:58:22.106Z,1.30
2017-05-12T07:00:51.291Z,1.40
2017-05-12T07:03:20.491Z,1.12
2017-05-12T07:05:49.679Z,1.10
2017-05-12T07:08:18.895Z,1.14
2017-05-12T07:10:48.082Z,1.20
2017-05-12T07:13:17.409Z,1.22
2017-05-12T07:15:46.584Z,1.42
2017-05-12T07:18:15.772Z,1.68
2017-05-12T07:20:45.035Z,1.26
2017-05-12T07:23:14.237Z,2.00
2017-05-12T07:25:43.460Z,1.58
2017-05-12T07:28:12.660Z,1.50
2017-05-12T07:30:41.869Z,1.28
2017-05-12T07:33:11.751Z,1.12
2017-05-12T07:35:40.957Z,1.32
2017-05-12T07:38:10.164Z,1.56
2017-05-12T07:40:39.369Z,1.34
2017-05-12T07:43:08.595Z,1.40
2017-05-12T07:45:37.785Z,1.04
2017-05-12T07:48:06.977Z,1.44
2017-05-12T07:50:36.204Z,1.46
2017-05-12T07:53:05.399Z,1.20
2017-05-12T07:55:34.609Z,1.10
2017-05-12T07:58:03.792Z,1.50
2017-05-12T08:00:32.983Z,1.32
2017-05-12T08:03:02.196Z,1.48
2017-05-12T08:05:31.388Z,1.14
2017-05-12T08:08:00.610Z,1.16
2017-05-12T08:10:29.809Z,1.18
2017-05-12T08:12:58.996Z,1.32
2017-05-12T08:15:28.211Z,1.02
2017-05-12T08:17:57.405Z,1.34
2017-05-12T08:20:26.608Z,1.30
2017-05-12T08:22:55.837Z,1.24
2017-05-12T08:25:25.057Z,1.10
2017-05-12T08:27:54.263Z,0.92
2017-05-12T08:30:23.453Z,1.32
2017-05-12T08:32:52.673Z,1.24
2017-05-12T08:35:21.907Z,1.50
2017-05-12T08:37:51.107Z,1.38
2017-05-12T08:40:20.323Z,1.22
2017-05-12T08:42:50.205Z,1.20
2017-05-12T08:45:19.409Z,1.24
2017-05-12T08:47:48.639Z,1.34
2017-05-12T08:50:17.832Z,1.06
2017-05-12T08:52:47.199Z,1.10
2017-05-12T08:55:16.402Z,0.96
2017-05-12T08:57:45.602Z,1.56
2017-05-12T09:00:14.880Z,1.34
2017-05-12T09:02:44.772Z,1.30
2017-05-12T09:05:13.974Z,1.40
2017-05-12T09:07:43.179Z,1.22
2017-05-12T09:10:12.412Z,1.14
2017-05-12T09:12:41.624Z,1.00
2017-05-12T09:15:10.809Z,0.98
2017-05-12T09:17:40.020Z,1.20
2017-05-12T09:20:09.229Z,1.20
2017-05-12T09:22:38.439Z,1.12
2017-05-12T09:25:07.655Z,1.32
2017-05-12T09:27:36.942Z,1.28
2017-05-12T09:30:06.135Z,1.10
2017-05-12T09:32:35.327Z,1.16
2017-05-12T09:35:04.535Z,0.92
2017-05-12T09:37:33.739Z,1.34
2017-05-12T09:40:02.927Z,1.00
2017-05-12T09:42:32.115Z,1.22
2017-05-12T09:45:01.327Z,1.12
2017-05-12T09:47:30.539Z,1.06
2017-05-12T09:49:59.781Z,0.94
2017-05-12T09:52:28.971Z,1.00
2017-05-12T09:54:57.863Z,1.20
2017-05-12T09:57:27.078Z,1.14
2017-05-12T09:59:56.265Z,0.84
2017-05-12T10:02:25.644Z,1.18
2017-05-12T10:04:54.857Z,1.00
2017-05-12T10:07:24.052Z,1.50
2017-05-12T10:09:53.311Z,1.22
2017-05-12T10:12:22.512Z,1.22
2017-05-12T10:14:51.696Z,1.24
2017-05-12T10:17:20.916Z,1.12
2017-05-12T10:19:50.100Z,0.82
2017-05-12T10:22:19.308Z,1.02
2017-05-12T10:24:48.495Z,0.80
2017-05-12T10:27:17.700Z,1.16
2017-05-12T10:29:46.913Z,1.04
2017-05-12T10:32:16.110Z,1.18
2017-05-12T10:34:45.336Z,1.10
2017-05-12T10:37:14.528Z,0.90
2017-05-12T10:39:43.720Z,1.06
2017-05-12T10:42:13.002Z,1.18
2017-05-12T10:44:42.876Z,1.40
2017-05-12T10:47:12.083Z,1.02
2017-05-12T10:49:41.271Z,1.22
2017-05-12T10:52:10.486Z,1.66
2017-05-12T10:54:39.499Z,0.98
2017-05-12T10:57:08.547Z,1.24
2017-05-12T10:59:37.835Z,1.10
2017-05-12T11:02:07.029Z,1.40
2017-05-12T11:04:36.219Z,1.32
2017-05-12T11:07:05.455Z,1.00
2017-05-12T11:09:35.383Z,1.20
2017-05-12T11:12:04.604Z,1.22
2017-05-12T11:14:33.787Z,1.12
2017-05-12T11:17:03.067Z,1.28
2017-05-12T11:19:32.999Z,1.10
2017-05-12T11:22:02.941Z,1.24
2017-05-12T11:24:32.139Z,1.30
2017-05-12T11:27:02.975Z,0.98
2017-05-12T11:29:32.184Z,1.10
2017-05-12T11:32:02.191Z,1.10
2017-05-12T11:34:31.535Z,1.22
2017-05-12T11:37:00.818Z,1.10
2017-05-12T11:39:30.023Z,2.00
2017-05-12T11:41:59.224Z,1.80
2017-05-12T11:44:28.428Z,1.34
2017-05-12T11:46:57.636Z,1.78
2017-05-12T11:49:26.870Z,1.78
2017-05-12T11:51:56.077Z,1.48
2017-05-12T11:54:25.315Z,1.80
2017-05-12T11:56:54.499Z,2.08
2017-05-12T11:59:23.757Z,1.80
2017-05-12T12:01:53.000Z,1.82
2017-05-12T12:04:22.167Z,1.94
2017-05-12T12:06:52.136Z,2.00
2017-05-12T12:09:21.357Z,1.30
2017-05-12T12:11:50.633Z,2.10
2017-05-12T12:14:19.839Z,1.90
2017-05-12T12:16:49.036Z,2.40
2017-05-12T12:19:18.268Z,2.42
2017-05-12T12:21:47.486Z,1.68
2017-05-12T12:24:17.451Z,1.56
2017-05-12T12:26:46.661Z,1.46
2017-05-12T12:29:15.856Z,1.54
2017-05-12T12:31:45.051Z,1.10
2017-05-12T12:34:14.943Z,1.40
2017-05-12T12:36:44.245Z,1.18
2017-05-12T12:39:13.434Z,1.22
2017-05-12T12:41:42.637Z,1.26
2017-05-12T12:44:11.852Z,1.12
2017-05-12T12:46:41.049Z,1.22
2017-05-12T12:49:10.304Z,1.76
2017-05-12T12:51:39.529Z,1.54
2017-05-12T12:54:08.706Z,1.44
2017-05-12T12:56:37.911Z,1.14
2017-05-12T12:59:07.096Z,1.50
2017-05-12T13:01:36.299Z,1.60
2017-05-12T13:04:06.235Z,1.10
2017-05-12T13:06:35.307Z,1.28
2017-05-12T13:09:03.859Z,1.50
2017-05-12T13:11:33.110Z,1.36
2017-05-12T13:14:02.316Z,1.14
2017-05-12T13:16:31.570Z,1.10
2017-05-12T13:19:00.783Z,0.90
2017-05-12T13:21:29.977Z,1.04
2017-05-12T13:23:59.244Z,1.76
2017-05-12T13:26:28.460Z,1.84
2017-05-12T13:28:57.643Z,1.68
2017-05-12T13:31:26.864Z,2.08
2017-05-12T13:33:56.053Z,2.00
2017-05-12T13:36:25.339Z,1.80
2017-05-12T13:38:54.540Z,1.82
2017-05-12T13:41:23.741Z,2.44
2017-05-12T13:43:53.054Z,2.46
2017-05-12T13:46:22.245Z,1.74
2017-05-12T13:48:51.473Z,1.88
2017-05-12T13:51:20.691Z,1.70
2017-05-12T13:53:49.889Z,1.54
2017-05-12T13:56:19.122Z,1.58
2017-05-12T13:58:48.332Z,1.46
2017-05-12T14:01:17.583Z,1.20
2017-05-12T14:03:46.785Z,1.58
2017-05-12T14:06:16.008Z,1.68
2017-05-12T14:08:45.220Z,1.24
2017-05-12T14:11:15.112Z,1.10
2017-05-12T14:13:44.331Z,1.20
2017-05-12T14:16:13.537Z,1.10
2017-05-12T14:18:42.743Z,1.66
2017-05-12T14:21:11.949Z,1.24
2017-05-12T14:23:41.847Z,1.30
2017-05-12T14:26:11.080Z,1.84
2017-05-12T14:28:40.283Z,1.54
2017-05-12T14:31:09.492Z,1.64
2017-05-12T14:33:38.683Z,1.98
2017-05-12T14:36:07.937Z,1.80
2017-05-12T14:38:37.144Z,1.90
2017-05-12T14:41:09.524Z,1.90
2017-05-12T14:43:38.999Z,2.13
2017-05-12T14:46:08.204Z,1.92
2017-05-12T14:48:37.392Z,1.64
2017-05-12T14:51:06.592Z,2.00
2017-05-12T14:53:35.837Z,2.04
2017-05-12T14:56:05.025Z,1.86
2017-05-12T14:58:34.247Z,1.88
2017-05-12T15:01:03.487Z,2.20
2017-05-12T15:03:32.703Z,1.72
2017-05-12T15:06:02.655Z,2.08
2017-05-12T15:08:31.868Z,1.90
2017-05-12T15:11:01.056Z,2.18
2017-05-12T15:13:30.275Z,2.44
2017-05-12T15:15:59.487Z,2.26
2017-05-12T15:18:28.680Z,1.86
2017-05-12T15:20:57.899Z,2.30
2017-05-12T15:23:27.097Z,2.34
2017-05-12T15:25:56.309Z,2.02
2017-05-12T15:28:26.280Z,2.10
2017-05-12T15:30:55.570Z,2.74
2017-05-12T15:33:24.776Z,3.54
2017-05-12T15:35:54.019Z,2.70
2017-05-12T15:38:23.265Z,2.68
2017-05-12T15:40:52.491Z,1.68
2017-05-12T15:43:21.737Z,1.80
2017-05-12T15:45:51.016Z,1.90
2017-05-12T15:48:20.192Z,2.00
2017-05-12T15:50:49.399Z,1.62
2017-05-12T15:53:18.639Z,1.44
2017-05-12T15:55:47.873Z,1.34
2017-05-12T15:58:17.147Z,1.68
2017-05-12T16:00:46.373Z,2.94
2017-05-12T16:03:15.587Z,2.06
2017-05-12T16:05:44.805Z,1.80
2017-05-12T16:08:14.003Z,2.30
2017-05-12T16:10:43.221Z,1.96
2017-05-12T16:13:12.439Z,1.90
2017-05-12T16:15:41.640Z,1.98
2017-05-12T16:18:10.845Z,2.20
2017-05-12T16:20:40.043Z,1.60
2017-05-12T16:23:09.250Z,1.42
2017-05-12T16:25:38.474Z,1.60
2017-05-12T16:28:07.660Z,2.10
2017-05-12T16:30:38.085Z,1.50
2017-05-12T16:33:07.265Z,2.24
2017-05-12T16:35:37.161Z,1.78
2017-05-12T16:38:06.360Z,2.06
2017-05-12T16:40:35.595Z,1.78
2017-05-12T16:43:04.821Z,1.80
2017-05-12T16:45:34.026Z,2.04
2017-05-12T16:48:03.266Z,2.76
2017-05-12T16:50:32.470Z,2.22
2017-05-12T16:53:01.698Z,1.94
2017-05-12T16:55:31.612Z,2.36
2017-05-12T16:58:00.832Z,2.38
2017-05-12T17:00:30.058Z,2.12
2017-05-12T17:02:59.283Z,2.80
2017-05-12T17:05:28.530Z,2.90
2017-05-12T17:07:57.735Z,2.26
2017-05-12T17:10:26.924Z,2.02
2017-05-12T17:12:56.130Z,1.94
2017-05-12T17:15:25.343Z,2.40
2017-05-12T17:17:54.540Z,2.56
2017-05-12T17:20:23.750Z,1.84
2017-05-12T17:22:52.966Z,2.02
2017-05-12T17:25:22.159Z,1.98
2017-05-12T17:27:51.379Z,2.32
2017-05-12T17:30:21.333Z,2.40
2017-05-12T17:32:50.549Z,2.84
2017-05-12T17:35:19.759Z,2.66
2017-05-12T17:37:49.033Z,2.58
2017-05-12T17:40:18.252Z,2.32
2017-05-12T17:42:47.443Z,2.42
2017-05-12T17:45:16.631Z,2.50
2017-05-12T17:47:45.839Z,2.00
2017-05-12T17:50:15.148Z,2.28
2017-05-12T17:52:44.361Z,1.96
2017-05-12T17:55:13.565Z,2.32
2017-05-12T17:57:42.776Z,2.54
2017-05-12T18:00:12.020Z,2.30
2017-05-12T18:02:41.200Z,2.62
2017-05-12T18:05:10.423Z,2.06
2017-05-12T18:07:39.633Z,1.72
2017-05-12T18:10:08.864Z,1.78
2017-05-12T18:12:38.068Z,2.04
2017-05-12T18:15:07.256Z,1.96
2017-05-12T18:17:36.464Z,2.32
2017-05-12T18:20:05.660Z,2.30
2017-05-12T18:22:34.868Z,2.00
2017-05-12T18:25:04.077Z,1.88
2017-05-12T18:27:33.266Z,2.18
2017-05-12T18:30:02.484Z,1.96
2017-05-12T18:32:31.673Z,2.08
2017-05-12T18:35:00.904Z,2.40
2017-05-12T18:37:30.176Z,2.26
2017-05-12T18:40:00.180Z,2.00
2017-05-12T18:42:29.395Z,2.56
2017-05-12T18:44:59.350Z,2.28
2017-05-12T18:47:28.622Z,2.40
2017-05-12T18:49:58.572Z,2.00
2017-05-12T18:52:27.783Z,2.68
2017-05-12T18:54:56.982Z,1.90
2017-05-12T18:57:26.191Z,2.40
2017-05-12T18:59:55.413Z,1.92
2017-05-12T19:02:24.631Z,2.18
2017-05-12T19:04:54.713Z,2.18
2017-05-12T19:07:23.927Z,2.36
2017-05-12T19:09:53.112Z,2.00
2017-05-12T19:12:22.333Z,2.30
2017-05-12T19:14:51.527Z,2.20
2017-05-12T19:17:20.767Z,1.60
2017-05-12T19:19:49.989Z,1.88
2017-05-12T19:22:19.211Z,1.68
2017-05-12T19:24:48.487Z,1.78
2017-05-12T19:27:17.719Z,2.38
2017-05-12T19:29:46.929Z,2.10
2017-05-12T19:32:16.168Z,1.76
2017-05-12T19:34:45.378Z,1.98
2017-05-12T19:37:14.571Z,3.48
2017-05-12T19:39:43.793Z,3.70
2017-05-12T19:42:13.016Z,2.58
2017-05-12T19:44:42.219Z,3.16
2017-05-12T19:47:11.430Z,3.26
2017-05-12T19:49:40.650Z,3.64
2017-05-12T19:52:10.797Z,2.52
2017-05-12T19:54:40.036Z,2.00
2017-05-12T19:57:09.307Z,3.58
2017-05-12T19:59:38.536Z,2.62
2017-05-12T20:02:07.735Z,2.34
2017-05-12T20:04:36.927Z,2.60
2017-05-12T20:07:06.159Z,2.00
2017-05-12T20:09:35.408Z,1.92
2017-05-12T20:12:04.614Z,2.10
2017-05-12T20:14:33.906Z,2.04
2017-05-12T20:17:03.121Z,2.00
2017-05-12T20:19:32.331Z,2.62
2017-05-12T20:22:01.519Z,1.74
2017-05-12T20:24:30.754Z,1.96
2017-05-12T20:26:59.965Z,1.82
2017-05-12T20:29:29.887Z,2.10
2017-05-12T20:31:59.857Z,2.30
2017-05-12T20:34:29.057Z,1.88
2017-05-12T20:36:58.261Z,2.36
2017-05-12T20:39:27.485Z,2.40
2017-05-12T20:41:56.688Z,1.98
2017-05-12T20:44:25.879Z,2.14
2017-05-12T20:46:55.088Z,1.94
2017-05-12T20:49:25.029Z,2.04
2017-05-12T20:51:54.245Z,2.56
2017-05-12T20:54:24.863Z,1.76
2017-05-12T20:56:54.085Z,1.92
2017-05-12T20:59:23.285Z,2.30
2017-05-12T21:01:52.475Z,2.10
2017-05-12T21:04:21.700Z,2.00
2017-05-12T21:06:50.964Z,2.36
2017-05-12T21:09:20.193Z,2.90
2017-05-12T21:11:49.375Z,2.42
2017-05-12T21:14:18.601Z,2.52
2017-05-12T21:16:47.801Z,2.46
2017-05-12T21:19:16.993Z,2.78
2017-05-12T21:21:46.199Z,2.52
2017-05-12T21:24:15.419Z,2.10
2017-05-12T21:26:45.449Z,2.46
2017-05-12T21:29:14.687Z,2.42
2017-05-12T21:31:43.920Z,2.58
2017-05-12T21:34:13.132Z,2.78
2017-05-12T21:36:42.345Z,2.60
2017-05-12T21:39:12.411Z,2.88
2017-05-12T21:41:41.685Z,3.04
2017-05-12T21:44:11.645Z,2.38
2017-05-12T21:46:40.842Z,2.48
2017-05-12T21:49:10.111Z,2.70
2017-05-12T21:51:39.316Z,2.96
2017-05-12T21:54:08.720Z,3.08
2017-05-12T21:56:37.945Z,3.00
2017-05-12T21:59:07.196Z,2.88
2017-05-12T22:01:37.144Z,3.30
2017-05-12T22:04:06.343Z,2.72
2017-05-12T22:06:36.980Z,2.40
2017-05-12T22:09:06.168Z,2.40
2017-05-12T22:11:35.388Z,2.36
2017-05-12T22:14:04.599Z,2.70
2017-05-12T22:16:33.807Z,2.08
2017-05-12T22:19:03.008Z,2.90
2017-05-12T22:21:32.196Z,2.56
2017-05-12T22:24:01.394Z,2.60
2017-05-12T22:26:30.599Z,2.20
2017-05-12T22:28:59.804Z,2.28
2017-05-12T22:31:29.004Z,2.28
2017-05-12T22:33:58.211Z,2.14
2017-05-12T22:36:27.421Z,2.32
2017-05-12T22:38:56.623Z,1.84
2017-05-12T22:41:25.832Z,2.28
2017-05-12T22:43:55.765Z,2.34
2017-05-12T22:46:24.971Z,2.30
2017-05-12T22:48:54.115Z,1.98
2017-05-12T22:51:23.308Z,2.26
2017-05-12T22:53:52.604Z,2.00
2017-05-12T22:56:21.804Z,1.78
2017-05-12T22:58:51.022Z,2.04
2017-05-12T23:01:20.895Z,1.90
2017-05-12T23:03:50.106Z,2.00
2017-05-12T23:06:19.292Z,1.54
2017-05-12T23:08:48.479Z,1.68
2017-05-12T23:11:17.707Z,1.70
2017-05-12T23:13:48.327Z,1.60
2017-05-12T23:16:17.533Z,1.46
2017-05-12T23:18:46.724Z,1.54
2017-05-12T23:21:16.034Z,1.88
2017-05-12T23:23:46.655Z,1.44
2017-05-12T23:26:15.854Z,1.58
2017-05-12T23:28:45.067Z,1.62
2017-05-12T23:31:14.273Z,1.60
2017-05-12T23:33:43.480Z,1.74
2017-05-12T23:36:12.684Z,1.48
2017-05-12T23:38:41.885Z,1.74
2017-05-12T23:41:11.764Z,1.54
2017-05-12T23:43:40.951Z,1.60
2017-05-12T23:46:10.173Z,1.34
2017-05-12T23:48:39.376Z,1.70
2017-05-12T23:51:08.579Z,1.84
2017-05-12T23:53:37.780Z,1.70
2017-05-12T23:56:06.973Z,1.64
2017-05-12T23:58:36.354Z,1.40
